Time;durP1;ratioP1;P1;durP2;ratioP2;P2;SDS_P1;SDS_P2;PMS_P1;PMS_P2;Temp;Humidity;BMP_temperature;BMP_pressure;BME280_temperature;BME280_humidity;BME280_pressure;Samples;Min_cycle;Max_cycle;Signal;HPM_P1;HPM_P2
2021/06/20 00:05:34;;;;;;;7.22;3.08;;;25.00;61.70;;;;;;20715275;23;20550;-20
2021/06/20 00:15:37;;;;;;;6.07;3.05;;;24.90;61.50;;;;;;20758569;28;20057;-20
2021/06/20 00:25:38;;;;;;;2.72;2.25;;;24.90;60.80;;;;;;20760536;28;20042;-20
2021/06/20 00:35:38;;;;;;;3.67;2.90;;;24.90;60.80;;;;;;20758570;28;20760;-20
2021/06/20 00:45:39;;;;;;;5.47;2.40;;;24.90;60.80;;;;;;20776899;28;20033;-20
2021/06/20 00:55:40;;;;;;;10.68;2.58;;;24.90;60.00;;;;;;20737228;28;20038;-20
2021/06/20 01:05:42;;;;;;;3.80;2.30;;;24.80;59.50;;;;;;20757852;28;20037;-19
2021/06/20 01:15:45;;;;;;;4.72;2.00;;;24.80;59.40;;;;;;20741532;28;20476;-19
2021/06/20 01:25:46;;;;;;;4.72;3.03;;;24.80;59.20;;;;;;20765593;28;20039;-20
2021/06/20 01:35:47;;;;;;;5.77;2.43;;;24.80;59.30;;;;;;20764764;28;20049;-20
2021/06/20 01:45:47;;;;;;;6.07;3.28;;;24.80;59.10;;;;;;20755088;28;20484;-21
2021/06/20 01:55:48;;;;;;;6.18;2.70;;;24.80;59.30;;;;;;20746794;28;20444;-21
2021/06/20 02:05:49;;;;;;;4.70;2.33;;;24.80;58.90;;;;;;20751984;28;20026;-21
2021/06/20 02:15:53;;;;;;;4.00;2.40;;;24.80;59.10;;;;;;20739251;28;20022;-21
2021/06/20 02:25:54;;;;;;;5.15;2.97;;;24.70;58.80;;;;;;20739182;28;20026;-20
2021/06/20 02:35:54;;;;;;;3.80;2.43;;;24.80;59.20;;;;;;20741546;28;20036;-20
2021/06/20 02:45:55;;;;;;;4.47;2.72;;;24.80;59.50;;;;;;20741550;28;20053;-21
2021/06/20 02:55:55;;;;;;;5.63;2.72;;;24.80;60.00;;;;;;20747645;28;20022;-20
2021/06/20 03:05:56;;;;;;;9.07;1.85;;;24.70;61.30;;;;;;20752325;28;20087;-21
2021/06/20 03:15:56;;;;;;;5.22;1.58;;;24.70;62.70;;;;;;20747458;28;20029;-21
2021/06/20 03:25:57;;;;;;;8.00;1.75;;;24.70;63.30;;;;;;20748753;28;20137;-21
2021/06/20 03:35:57;;;;;;;7.85;2.00;;;24.60;64.50;;;;;;20768789;28;20486;-21
2021/06/20 03:45:58;;;;;;;6.97;1.45;;;24.60;64.90;;;;;;20755044;28;20061;-20
2021/06/20 03:55:59;;;;;;;10.55;2.70;;;24.50;65.10;;;;;;20749453;28;20602;-20
2021/06/20 04:05:59;;;;;;;10.60;2.22;;;24.50;65.60;;;;;;20754163;28;20034;-20
2021/06/20 04:16:00;;;;;;;8.15;2.30;;;24.50;65.70;;;;;;20747557;28;20425;-20
2021/06/20 04:26:00;;;;;;;9.10;2.37;;;24.50;66.10;;;;;;20747552;28;20026;-20
2021/06/20 04:36:01;;;;;;;12.13;2.33;;;24.50;65.90;;;;;;20751569;28;20370;-20
2021/06/20 04:46:02;;;;;;;6.00;1.70;;;24.50;66.10;;;;;;20745325;28;20030;-20
2021/06/20 04:56:02;;;;;;;5.72;1.95;;;24.40;66.40;;;;;;20749396;28;20581;-19
2021/06/20 05:06:03;;;;;;;8.48;2.78;;;24.40;66.50;;;;;;20766328;28;20025;-19
2021/06/20 05:16:04;;;;;;;12.25;2.78;;;24.40;66.40;;;;;;20768301;28;20029;-19
2021/06/20 05:26:05;;;;;;;10.02;2.53;;;24.50;66.40;;;;;;20759647;28;20040;-20
2021/06/20 05:36:06;;;;;;;14.20;3.58;;;24.50;66.60;;;;;;20759127;28;20057;-20
2021/06/20 05:46:06;;;;;;;9.27;3.37;;;24.50;66.60;;;;;;20738298;28;20033;-20
2021/06/20 05:56:08;;;;;;;9.35;2.80;;;24.40;67.20;;;;;;20768521;28;20029;-20
2021/06/20 06:06:08;;;;;;;14.10;4.32;;;24.50;67.00;;;;;;20765831;28;20030;-20
2021/06/20 06:16:09;;;;;;;11.50;2.60;;;24.40;67.30;;;;;;20765039;28;20091;-21
2021/06/20 06:26:09;;;;;;;16.40;3.87;;;24.40;67.90;;;;;;20753632;28;20025;-21
2021/06/20 06:36:10;;;;;;;10.93;3.03;;;24.50;68.40;;;;;;20754809;28;20461;-20
2021/06/20 06:46:11;;;;;;;12.27;2.90;;;24.50;68.50;;;;;;20759322;28;20041;-19
2021/06/20 06:56:11;;;;;;;7.93;2.22;;;24.50;68.50;;;;;;20764782;28;20041;-20
2021/06/20 07:06:12;;;;;;;8.02;2.53;;;24.60;68.90;;;;;;20771665;28;20045;-20
2021/06/20 07:16:13;;;;;;;10.20;2.40;;;24.60;69.30;;;;;;20776644;28;20031;-20
2021/06/20 07:26:14;;;;;;;6.95;2.42;;;24.60;69.10;;;;;;20762560;28;20032;-20
2021/06/20 07:36:15;;;;;;;6.72;3.00;;;24.60;68.50;;;;;;20729475;28;20485;-20
2021/06/20 07:46:16;;;;;;;7.90;2.90;;;24.60;68.40;;;;;;20750912;28;20030;-21
2021/06/20 07:56:17;;;;;;;8.15;2.50;;;24.60;68.00;;;;;;20700751;28;20516;-20
2021/06/20 08:06:17;;;;;;;7.47;3.15;;;24.60;68.30;;;;;;20750013;28;20037;-20
2021/06/20 08:16:18;;;;;;;13.23;4.15;;;24.70;68.20;;;;;;20746985;28;20030;-21
2021/06/20 08:26:19;;;;;;;31.48;7.13;;;24.70;68.60;;;;;;20750367;28;20022;-21
2021/06/20 08:36:20;;;;;;;23.10;8.05;;;24.70;68.90;;;;;;20746441;28;20060;-20
2021/06/20 08:46:20;;;;;;;19.10;7.25;;;24.80;68.00;;;;;;20744054;28;20034;-20
2021/06/20 08:56:21;;;;;;;14.70;6.85;;;25.00;67.70;;;;;;20744314;28;20386;-20
2021/06/20 09:06:23;;;;;;;15.30;6.38;;;25.10;67.70;;;;;;20744281;28;20649;-20
2021/06/20 09:16:24;;;;;;;10.30;4.78;;;25.10;67.10;;;;;;20741703;28;20022;-20
2021/06/20 09:26:40;;;;;;;12.13;5.68;;;25.10;66.90;;;;;;20741983;28;20048;-20
2021/06/20 09:36:42;;;;;;;12.60;4.15;;;25.00;66.20;;;;;;20746560;28;20425;-20
2021/06/20 09:46:53;;;;;;;9.85;3.80;;;25.00;65.80;;;;;;20727327;28;20030;-20
2021/06/20 09:56:53;;;;;;;6.28;3.67;;;25.00;65.20;;;;;;20737557;28;20552;-21
2021/06/20 10:06:54;;;;;;;10.32;3.78;;;25.00;65.10;;;;;;20702637;28;20077;-20
2021/06/20 10:17:01;;;;;;;8.00;4.03;;;25.00;65.00;;;;;;20711693;28;20080;-21
2021/06/20 10:27:05;;;;;;;7.97;3.13;;;25.00;64.80;;;;;;20791893;28;20475;-22
2021/06/20 10:37:07;;;;;;;6.00;3.63;;;25.00;64.70;;;;;;20791124;28;20599;-21
2021/06/20 10:47:07;;;;;;;7.30;3.00;;;25.00;64.60;;;;;;20791016;28;20021;-21
2021/06/20 10:57:11;;;;;;;5.50;3.17;;;25.00;64.60;;;;;;20803704;28;20032;-21
2021/06/20 11:07:23;;;;;;;8.30;3.47;;;25.10;64.50;;;;;;20793978;28;20458;-20
2021/06/20 11:17:33;;;;;;;6.88;3.60;;;25.00;64.50;;;;;;20790179;28;20029;-21
2021/06/20 11:27:34;;;;;;;7.05;3.55;;;25.00;64.60;;;;;;20771383;28;20050;-20
2021/06/20 11:37:45;;;;;;;7.25;3.70;;;25.00;64.50;;;;;;20778607;28;20173;-20
2021/06/20 11:47:55;;;;;;;9.55;3.42;;;25.00;64.70;;;;;;20779102;28;20028;-20
2021/06/20 11:58:01;;;;;;;11.68;4.78;;;25.10;64.60;;;;;;20779200;28;20057;-20
2021/06/20 12:08:04;;;;;;;9.52;3.90;;;25.20;64.60;;;;;;20762277;28;20151;-20
2021/06/20 12:18:12;;;;;;;8.35;4.60;;;25.20;64.50;;;;;;20753706;28;20445;-20
2021/06/20 12:28:14;;;;;;;5.88;3.88;;;25.20;65.10;;;;;;20759943;28;20101;-20
2021/06/20 12:38:20;;;;;;;6.18;3.40;;;25.30;64.70;;;;;;20755572;28;20033;-20
2021/06/20 12:48:21;;;;;;;5.80;4.05;;;25.30;64.70;;;;;;20746077;28;20026;-20
2021/06/20 12:58:21;;;;;;;8.15;3.78;;;25.30;64.70;;;;;;20764914;28;20032;-20
2021/06/20 13:08:30;;;;;;;5.32;3.20;;;25.30;64.70;;;;;;20742281;28;20038;-20
2021/06/20 13:18:30;;;;;;;6.65;3.28;;;25.30;64.60;;;;;;20761390;28;20417;-21
2021/06/20 13:28:31;;;;;;;4.60;3.15;;;25.20;64.60;;;;;;20733165;28;20113;-19
2021/06/20 13:38:32;;;;;;;3.38;2.85;;;25.20;64.60;;;;;;20742266;28;20018;-20
2021/06/20 13:48:33;;;;;;;6.05;3.00;;;25.30;64.70;;;;;;20741796;28;20390;-20
2021/06/20 13:58:33;;;;;;;6.57;3.05;;;25.30;64.70;;;;;;20740904;28;20165;-20
2021/06/20 14:08:34;;;;;;;3.40;2.67;;;25.30;64.70;;;;;;20739434;28;20049;-20
2021/06/20 14:18:34;;;;;;;5.30;3.03;;;25.20;64.60;;;;;;20738446;28;20036;-20
2021/06/20 14:28:36;;;;;;;4.07;3.25;;;25.30;64.60;;;;;;20741304;28;20127;-20
2021/06/20 14:38:36;;;;;;;4.38;2.80;;;25.30;64.60;;;;;;20737586;28;20037;-20
2021/06/20 14:48:37;;;;;;;4.90;2.80;;;25.20;64.60;;;;;;20742293;28;20485;-20
2021/06/20 14:58:38;;;;;;;6.07;2.83;;;25.30;64.60;;;;;;20761755;28;20034;-20
2021/06/20 15:08:39;;;;;;;6.45;2.67;;;25.30;64.60;;;;;;20763442;28;20099;-21
2021/06/20 15:18:40;;;;;;;4.57;3.13;;;25.30;64.60;;;;;;20760915;28;20109;-21
2021/06/20 15:28:53;;;;;;;4.85;2.90;;;25.30;64.60;;;;;;20763294;28;20520;-20
2021/06/20 15:38:54;;;;;;;3.30;2.22;;;25.30;64.60;;;;;;20768774;28;20478;-21
2021/06/20 15:48:57;;;;;;;4.90;3.45;;;25.30;64.50;;;;;;20769390;28;20048;-21
2021/06/20 15:58:58;;;;;;;4.18;2.85;;;25.30;64.30;;;;;;20773630;28;20088;-21
2021/06/20 16:08:58;;;;;;;5.28;2.80;;;25.40;64.20;;;;;;20771226;28;20042;-21
2021/06/20 16:18:59;;;;;;;3.57;2.00;;;25.40;64.10;;;;;;20770947;28;20076;-21
2021/06/20 16:28:59;;;;;;;3.40;2.20;;;25.40;64.00;;;;;;20760275;28;20468;-21
2021/06/20 16:39:00;;;;;;;2.22;1.92;;;25.50;64.10;;;;;;20763900;28;20065;-19
2021/06/20 16:49:01;;;;;;;3.20;1.95;;;25.50;64.00;;;;;;20766227;28;20040;-22
2021/06/20 16:59:01;;;;;;;2.78;2.05;;;25.50;63.90;;;;;;20769332;28;20402;-21
2021/06/20 17:09:02;;;;;;;2.75;2.03;;;25.50;64.10;;;;;;20749678;28;20079;-21
2021/06/20 17:19:03;;;;;;;7.25;1.95;;;25.50;64.00;;;;;;20725976;28;20029;-20
2021/06/20 17:29:04;;;;;;;2.80;2.07;;;25.50;63.90;;;;;;20733988;28;20033;-21
2021/06/20 17:39:06;;;;;;;4.17;2.50;;;25.50;64.00;;;;;;20746099;28;20030;-20
2021/06/20 17:49:08;;;;;;;3.13;2.22;;;25.50;64.00;;;;;;20734484;28;20463;-20
2021/06/20 17:59:09;;;;;;;3.50;2.40;;;25.50;64.10;;;;;;20759870;28;20025;-21
2021/06/20 18:09:10;;;;;;;4.53;2.58;;;25.50;64.10;;;;;;20790184;23;20128;-19
2021/06/20 18:19:13;;;;;;;2.70;1.73;;;25.40;64.10;;;;;;20733472;28;20072;-21
2021/06/20 18:29:14;;;;;;;5.72;2.10;;;25.30;61.20;;;;;;20759137;28;20038;-21
2021/06/20 18:39:15;;;;;;;6.30;1.73;;;25.30;59.40;;;;;;20737666;28;20036;-20
2021/06/20 18:49:15;;;;;;;5.27;1.43;;;25.30;58.30;;;;;;20749414;28;20026;-20
2021/06/20 18:59:16;;;;;;;2.22;1.02;;;25.20;57.90;;;;;;20743171;28;20045;-20
2021/06/20 19:09:16;;;;;;;3.55;1.48;;;25.10;55.80;;;;;;20755950;28;20037;-19
2021/06/20 19:19:17;;;;;;;3.83;1.70;;;25.10;55.90;;;;;;20764354;28;20045;-20
2021/06/20 19:29:18;;;;;;;4.93;1.38;;;25.10;56.80;;;;;;20751659;28;20030;-20
2021/06/20 19:39:19;;;;;;;3.85;1.35;;;25.20;56.10;;;;;;20754812;28;20394;-19
2021/06/20 19:49:20;;;;;;;3.90;1.45;;;25.10;56.30;;;;;;20751060;28;20152;-19
2021/06/20 19:59:20;;;;;;;8.83;1.97;;;25.10;56.50;;;;;;20750007;28;20057;-19
2021/06/20 20:09:21;;;;;;;7.87;1.77;;;25.20;57.10;;;;;;20734640;28;20083;-20
2021/06/20 20:19:21;;;;;;;4.00;1.38;;;25.20;56.30;;;;;;20756006;28;20377;-20
2021/06/20 20:29:22;;;;;;;6.03;1.50;;;25.10;56.90;;;;;;20777849;28;20064;-20
2021/06/20 20:39:22;;;;;;;5.97;1.80;;;25.10;56.90;;;;;;20759137;28;20037;-20
2021/06/20 20:49:23;;;;;;;3.80;1.58;;;25.10;55.80;;;;;;20771065;28;20487;-20
2021/06/20 20:59:23;;;;;;;2.95;2.00;;;25.00;55.80;;;;;;20786357;28;20030;-21
2021/06/20 21:09:25;;;;;;;3.47;1.98;;;25.00;55.70;;;;;;20750291;28;20677;-20
2021/06/20 21:19:26;;;;;;;5.78;2.90;;;25.00;56.20;;;;;;20699072;28;20030;-19
2021/06/20 21:29:27;;;;;;;4.22;3.40;;;24.90;56.60;;;;;;20694861;28;20037;-19
2021/06/20 21:39:27;;;;;;;4.10;3.70;;;24.90;57.20;;;;;;20697958;28;20058;-20
2021/06/20 21:49:28;;;;;;;10.50;5.70;;;24.90;57.90;;;;;;20714465;28;20057;-20
2021/06/20 21:59:28;;;;;;;4.68;3.97;;;24.90;57.90;;;;;;20722691;28;20052;-19
2021/06/20 22:09:29;;;;;;;7.70;4.35;;;24.80;58.30;;;;;;20758118;28;20482;-19
2021/06/20 22:19:29;;;;;;;7.55;4.10;;;24.80;58.90;;;;;;20768659;28;20026;-19
2021/06/20 22:29:31;;;;;;;4.97;4.10;;;24.70;58.90;;;;;;20750203;28;20387;-19
2021/06/20 22:39:31;;;;;;;4.82;3.85;;;24.70;59.20;;;;;;20782218;28;20033;-20
2021/06/20 22:49:32;;;;;;;5.22;3.63;;;24.70;59.30;;;;;;20777806;28;20022;-19
2021/06/20 22:59:32;;;;;;;6.93;3.85;;;24.70;59.50;;;;;;20760321;28;20387;-19
2021/06/20 23:09:33;;;;;;;5.03;3.60;;;24.60;59.60;;;;;;20738946;28;20046;-21
2021/06/20 23:19:34;;;;;;;8.73;4.43;;;24.70;59.80;;;;;;20740762;28;20038;-19
2021/06/20 23:29:36;;;;;;;6.33;4.03;;;24.70;59.90;;;;;;20745975;28;20057;-20
2021/06/20 23:39:37;;;;;;;6.65;3.60;;;24.70;59.90;;;;;;20747098;28;20472;-19
2021/06/20 23:49:38;;;;;;;3.53;2.83;;;24.60;59.90;;;;;;20750931;28;20245;-19
2021/06/20 23:59:38;;;;;;;4.32;2.35;;;24.60;60.10;;;;;;20757917;28;20109;-19
